メインページ
METAR-TAF:

METAR-TAF

空港 :

サー・シウサガル・ラングーラム国際空港

モーリシャス, モーリシャス

緯度: 20-26S, 経度: 057-40E, 海抜: 55m

現時点の気象観測

当レポートは32分前の01:00(UTC)に作成
東/北東の風 7kt
気温 21°C
湿度 78%
気圧 1019 hPa
視程10km以上
高度1700ftの雲は散在している

METAR: FIMP 160100Z 07007KT 9999 SCT017 21/17 Q1019

時間: 05:32 (01:32 UTC)

予報

当レポートは1時間57分前の23:35(UTC)に作成
予報は16日の 00時(UTC)から 17日の 06時(UTC)まで有効
の風 10kt
視程10km以上
高度1800ftの雲は散在している

TAF: FIMP 152335Z 1600/1706 08010KT 9999 SCT018

4,000以上の空港の気象観測と天気予報(METAR報とTAF報)

利用可能な観測所は地図上に黄色い丸と赤い丸で示す。

丸の上にカーソルを重ねると観測所名を参照できる。

次にクリックすると気象観測と天気予報を参照できる。

マップの切り替え:黒色「×」印の緑ボタンをクリックして拡大、「-」印の緑ボタンをクリックして縮小、緑色の三角印をクリックして隣りの地図に切り替え


METAR-TAF: